Time;durP1;ratioP1;P1;durP2;ratioP2;P2;SDS_P1;SDS_P2;PMS_P1;PMS_P2;Temp;Humidity;BMP_temperature;BMP_pressure;BME280_temperature;BME280_humidity;BME280_pressure;Samples;Min_cycle;Max_cycle;Signal;HPM_P1;HPM_P2
2023/05/01 00:01:07;;;;;;;8.40;5.78;;;;;;;5.32;87.83;101937.25;5034712;28;20238;-50
2023/05/01 00:03:32;;;;;;;12.75;5.80;;;;;;;5.36;88.04;101925.75;5036574;28;20639;-47
2023/05/01 00:06:00;;;;;;;12.10;5.93;;;;;;;5.33;88.27;101917.75;5033043;28;20283;-46
2023/05/01 00:08:25;;;;;;;9.52;5.28;;;;;;;5.41;88.19;101904.47;5021673;28;20635;-48
2023/05/01 00:10:51;;;;;;;9.05;6.65;;;;;;;5.42;88.12;101908.03;5040100;28;20200;-47
2023/05/01 00:13:20;;;;;;;10.13;5.80;;;;;;;5.41;88.33;101909.78;5053195;28;20160;-48
2023/05/01 00:15:46;;;;;;;8.75;5.60;;;;;;;5.44;88.52;101903.59;5032859;28;20651;-48
2023/05/01 00:18:12;;;;;;;9.75;5.47;;;;;;;5.43;88.58;101897.41;5047674;28;20176;-47
2023/05/01 00:20:39;;;;;;;10.25;5.13;;;;;;;5.31;88.80;101898.28;5033716;28;20202;-47
2023/05/01 00:23:05;;;;;;;8.95;5.88;;;;;;;5.35;88.71;101897.38;5023652;28;20176;-49
2023/05/01 00:25:31;;;;;;;11.63;6.30;;;;;;;5.21;88.76;101882.34;5012962;28;20207;-49
2023/05/01 00:27:58;;;;;;;7.00;5.65;;;;;;;5.21;89.38;101880.56;5013956;28;20239;-47
2023/05/01 00:30:24;;;;;;;10.38;6.47;;;;;;;5.09;89.41;101892.03;5014131;28;20286;-51
2023/05/01 00:32:50;;;;;;;12.02;6.00;;;;;;;5.20;90.00;101894.72;5012733;28;20509;-48
2023/05/01 00:35:15;;;;;;;8.73;5.72;;;;;;;5.15;89.56;101878.78;5042068;28;20186;-48
2023/05/01 00:37:41;;;;;;;10.05;5.90;;;;;;;5.19;90.06;101876.13;5033844;28;20604;-49
2023/05/01 00:40:07;;;;;;;8.43;5.43;;;;;;;5.21;89.99;101871.72;5030972;28;20183;-49
2023/05/01 00:42:34;;;;;;;12.68;6.68;;;;;;;5.19;89.92;101871.69;5032431;28;20626;-48
2023/05/01 00:45:00;;;;;;;11.15;6.22;;;;;;;5.14;90.10;101870.81;5027518;28;20569;-48
2023/05/01 00:47:26;;;;;;;13.07;6.07;;;;;;;5.14;90.48;101870.81;5025776;28;20167;-45
2023/05/01 00:49:51;;;;;;;9.00;5.88;;;;;;;5.17;90.67;101865.50;5039918;28;20669;-49
2023/05/01 00:52:17;;;;;;;7.38;5.88;;;;;;;5.20;90.74;101872.56;5012234;28;20200;-48
2023/05/01 00:54:50;;;;;;;9.07;6.20;;;;;;;5.11;91.00;101865.47;5010857;28;20192;-53
2023/05/01 00:57:20;;;;;;;9.50;6.22;;;;;;;5.12;91.18;101861.97;5029943;28;20542;-47
2023/05/01 00:59:46;;;;;;;10.43;5.85;;;;;;;5.15;91.36;101856.63;5020056;28;20184;-48
2023/05/01 01:02:12;;;;;;;11.13;6.40;;;;;;;5.14;91.11;101857.53;5046520;28;20241;-46
2023/05/01 01:04:43;;;;;;;10.88;6.50;;;;;;;5.14;91.25;101855.75;5046089;28;20184;-48
2023/05/01 01:07:32;;;;;;;10.93;6.50;;;;;;;5.14;91.43;101849.56;5036159;28;20176;-52
2023/05/01 01:10:17;;;;;;;9.27;6.03;;;;;;;5.06;91.29;101851.31;5024200;28;20262;-49
2023/05/01 01:13:07;;;;;;;11.40;6.30;;;;;;;5.09;91.24;101846.00;5043544;28;20176;-48
2023/05/01 01:16:09;;;;;;;12.43;6.43;;;;;;;5.08;91.32;101849.56;5011785;28;20249;-48
2023/05/01 01:19:04;;;;;;;10.32;6.32;;;;;;;5.11;91.46;101847.78;5023797;28;20182;-48
2023/05/01 01:21:41;;;;;;;10.30;5.55;;;;;;;5.09;91.30;101841.56;5036969;28;20212;-47
2023/05/01 01:24:25;;;;;;;8.50;6.10;;;;;;;5.10;91.42;101840.69;5030472;28;20205;-47
2023/05/01 01:27:20;;;;;;;6.97;5.35;;;;;;;5.15;91.21;101838.03;5029739;28;20187;-47
2023/05/01 01:30:30;;;;;;;9.35;5.22;;;;;;;5.12;91.49;101840.72;5018689;28;20843;-46
2023/05/01 01:33:23;;;;;;;9.13;5.70;;;;;;;5.11;91.11;101844.22;5026172;28;20190;-45
2023/05/01 01:36:06;;;;;;;13.13;5.90;;;;;;;5.07;91.39;101843.38;5014962;28;20201;-46
2023/05/01 01:38:50;;;;;;;8.25;5.78;;;;;;;4.98;91.59;101837.16;5043859;28;20192;-44
2023/05/01 01:41:26;;;;;;;10.63;5.82;;;;;;;4.95;91.41;101838.91;5015003;28;20215;-43
2023/05/01 01:44:01;;;;;;;10.43;6.20;;;;;;;4.98;91.42;101838.03;5023563;28;20549;-49
2023/05/01 01:46:27;;;;;;;11.63;6.35;;;;;;;4.97;91.50;101827.41;5025060;28;20195;-45
2023/05/01 01:48:56;;;;;;;12.43;6.20;;;;;;;4.98;91.91;101826.53;5023869;28;20189;-45
2023/05/01 01:51:25;;;;;;;10.27;6.25;;;;;;;4.86;91.98;101822.97;5031477;28;20652;-47
2023/05/01 01:53:55;;;;;;;13.38;6.30;;;;;;;4.91;91.88;101823.84;5023216;28;20266;-49
2023/05/01 01:56:25;;;;;;;9.27;5.45;;;;;;;4.86;92.27;101819.44;5033401;28;20667;-47
2023/05/01 01:58:52;;;;;;;12.00;5.70;;;;;;;4.91;92.25;101820.31;5036894;28;20187;-48
2023/05/01 02:01:19;;;;;;;11.55;6.22;;;;;;;4.81;92.21;101818.53;5027549;28;20230;-46
2023/05/01 02:03:46;;;;;;;11.10;6.13;;;;;;;4.82;92.33;101823.84;5023977;28;20191;-48
2023/05/01 02:06:14;;;;;;;13.10;6.22;;;;;;;4.75;92.71;101815.00;5021889;28;20194;-46
2023/05/01 02:08:41;;;;;;;9.93;5.43;;;;;;;4.74;92.86;101807.94;5036343;28;20245;-46
2023/05/01 02:11:09;;;;;;;10.77;6.10;;;;;;;4.75;92.79;101824.72;5031885;28;20674;-48
2023/05/01 02:13:37;;;;;;;13.18;5.90;;;;;;;4.75;92.99;101806.16;5028038;28;20172;-47
2023/05/01 02:16:05;;;;;;;13.25;6.43;;;;;;;4.79;93.05;101807.94;5024447;28;20184;-48
2023/05/01 02:18:32;;;;;;;9.00;5.75;;;;;;;4.74;93.36;101805.28;5020646;28;20217;-46
2023/05/01 02:20:59;;;;;;;10.40;6.45;;;;;;;4.67;93.14;101797.28;5027812;28;20200;-48
2023/05/01 02:23:27;;;;;;;9.98;6.30;;;;;;;4.71;93.42;101805.25;5025991;28;20239;-48
2023/05/01 02:25:56;;;;;;;10.60;6.55;;;;;;;4.74;93.57;101799.03;5034831;28;20578;-46
2023/05/01 02:28:25;;;;;;;15.50;6.97;;;;;;;4.70;93.58;101794.63;5039144;28;20180;-49
2023/05/01 02:30:51;;;;;;;9.43;5.80;;;;;;;4.69;93.54;101808.78;5006622;28;20635;-47
2023/05/01 02:33:17;;;;;;;9.52;5.85;;;;;;;4.72;93.70;101801.72;5031221;28;20258;-45
2023/05/01 02:35:43;;;;;;;7.75;5.68;;;;;;;4.74;93.69;101781.38;5029169;28;20246;-47
2023/05/01 02:38:11;;;;;;;9.70;5.72;;;;;;;4.74;93.75;101792.00;5032705;28;20171;-47
2023/05/01 02:40:38;;;;;;;8.75;6.22;;;;;;;4.71;93.27;101776.03;5031811;28;20222;-47
2023/05/01 02:43:07;;;;;;;14.30;6.25;;;;;;;4.69;93.60;101780.47;5031456;28;20177;-46
2023/05/01 02:45:37;;;;;;;9.82;6.47;;;;;;;4.69;93.80;101775.16;5036209;28;20558;-47
2023/05/01 02:48:05;;;;;;;9.13;6.30;;;;;;;4.66;93.99;101768.97;5028523;28;20642;-46
2023/05/01 02:50:32;;;;;;;9.43;6.25;;;;;;;4.59;94.25;101767.19;5028304;28;20636;-46
2023/05/01 02:52:59;;;;;;;8.68;5.88;;;;;;;4.59;94.44;101775.13;5031741;28;20199;-46
2023/05/01 02:55:37;;;;;;;9.20;5.85;;;;;;;4.61;94.53;101768.06;5038820;28;20208;-47
2023/05/01 02:58:03;;;;;;;9.55;6.32;;;;;;;4.58;94.74;101762.75;5041999;28;20175;-47
2023/05/01 03:00:28;;;;;;;9.27;6.10;;;;;;;4.55;94.77;101766.31;5028655;28;20287;-48
2023/05/01 03:02:54;;;;;;;13.00;6.28;;;;;;;4.54;94.73;101757.44;5026531;28;20561;-47
2023/05/01 03:05:20;;;;;;;12.80;6.00;;;;;;;4.58;94.80;101755.69;5053199;28;20195;-47
2023/05/01 03:07:47;;;;;;;9.57;5.68;;;;;;;4.60;94.94;101747.72;5025343;28;20195;-47
2023/05/01 03:10:12;;;;;;;11.10;6.28;;;;;;;4.60;94.68;101739.78;5031322;28;20710;-46
2023/05/01 03:12:38;;;;;;;11.05;6.07;;;;;;;4.61;94.58;101739.75;5015996;28;20184;-48
2023/05/01 03:15:04;;;;;;;7.97;5.78;;;;;;;4.59;94.60;101748.59;5032320;28;20191;-48
2023/05/01 03:17:30;;;;;;;8.13;5.60;;;;;;;4.69;94.32;101745.97;5018709;28;20176;-49
2023/05/01 03:19:55;;;;;;;8.60;6.25;;;;;;;4.61;94.15;101744.19;5019151;28;20518;-47
2023/05/01 03:22:21;;;;;;;10.93;6.03;;;;;;;4.59;94.21;101737.97;5028882;28;20226;-49
2023/05/01 03:24:46;;;;;;;8.60;6.00;;;;;;;4.54;93.98;101728.25;5034538;28;20175;-46
2023/05/01 03:27:12;;;;;;;12.90;6.38;;;;;;;4.61;93.86;101733.56;5030408;28;20830;-48
2023/05/01 03:29:37;;;;;;;10.80;6.15;;;;;;;4.65;93.95;101738.88;5029204;28;20203;-48
2023/05/01 03:32:04;;;;;;;7.40;5.30;;;;;;;4.68;93.60;101730.00;5042060;28;20231;-49
2023/05/01 03:34:29;;;;;;;7.50;5.20;;;;;;;4.62;93.49;101719.44;5033606;28;20286;-49
2023/05/01 03:36:55;;;;;;;8.57;5.85;;;;;;;4.56;93.56;101725.59;5030093;28;20683;-47
2023/05/01 03:39:22;;;;;;;8.13;5.70;;;;;;;4.59;93.42;101728.28;5030885;28;20191;-47
2023/05/01 03:42:06;;;;;;;11.60;6.53;;;;;;;4.56;93.38;101727.38;5039378;28;20660;-49
2023/05/01 03:44:37;;;;;;;7.30;4.97;;;;;;;4.53;93.06;101725.59;5035195;28;20282;-48
2023/05/01 03:47:03;;;;;;;8.75;5.25;;;;;;;4.51;93.12;101719.41;5014764;28;20181;-48
2023/05/01 03:49:29;;;;;;;9.77;5.38;;;;;;;4.53;93.32;101715.88;5028099;28;20196;-49
2023/05/01 03:51:55;;;;;;;8.65;4.95;;;;;;;4.52;92.91;101715.84;5035844;28;20568;-48
2023/05/01 03:54:20;;;;;;;6.40;5.00;;;;;;;4.49;93.12;101708.78;5029916;28;20225;-47
2023/05/01 03:56:57;;;;;;;6.97;4.85;;;;;;;4.55;92.63;101710.56;5031954;28;20215;-47
2023/05/01 03:59:23;;;;;;;10.07;5.35;;;;;;;4.59;92.42;101707.03;5035846;28;20172;-47
2023/05/01 04:01:49;;;;;;;8.30;5.10;;;;;;;4.50;92.56;101707.91;5020904;28;20203;-48
2023/05/01 04:04:15;;;;;;;8.02;4.90;;;;;;;4.57;92.39;101707.91;5033512;28;20198;-47
2023/05/01 04:06:46;;;;;;;8.60;5.38;;;;;;;4.60;92.42;101705.25;5030017;28;20231;-47
2023/05/01 04:09:12;;;;;;;4.97;4.32;;;;;;;4.65;92.49;101708.78;5033043;28;20222;-49
2023/05/01 04:11:37;;;;;;;6.65;4.97;;;;;;;4.65;92.16;101703.50;5039668;28;20706;-46
2023/05/01 04:14:03;;;;;;;11.05;5.93;;;;;;;4.66;92.00;101695.53;5035109;28;20320;-50
2023/05/01 04:16:29;;;;;;;6.18;4.93;;;;;;;4.70;91.92;101692.00;5022631;28;20229;-47
2023/05/01 04:18:55;;;;;;;6.53;4.93;;;;;;;4.75;91.76;101692.00;5037235;28;20185;-47
2023/05/01 04:21:21;;;;;;;8.43;4.68;;;;;;;4.78;91.65;101694.63;5029084;28;20207;-46
2023/05/01 04:23:49;;;;;;;7.13;4.28;;;;;;;4.77;91.43;101692.88;5030358;28;20230;-46
2023/05/01 04:26:16;;;;;;;10.40;5.25;;;;;;;4.81;91.13;101684.03;5015482;28;20184;-47
2023/05/01 04:28:41;;;;;;;11.23;4.90;;;;;;;4.91;90.92;101684.91;5040673;28;20268;-47
2023/05/01 04:31:09;;;;;;;9.95;4.78;;;;;;;4.95;91.02;101684.00;5041411;28;20211;-46
2023/05/01 04:33:35;;;;;;;8.07;4.88;;;;;;;5.01;90.73;101678.69;5038464;28;20184;-45
2023/05/01 04:36:01;;;;;;;6.82;4.45;;;;;;;5.14;90.16;101680.44;5007316;28;20204;-46
2023/05/01 04:38:27;;;;;;;11.63;4.40;;;;;;;5.22;90.15;101680.41;5018879;28;20629;-44
2023/05/01 04:40:55;;;;;;;6.45;4.55;;;;;;;5.35;89.77;101663.53;5035964;28;20204;-43
2023/05/01 04:43:20;;;;;;;10.35;4.72;;;;;;;5.52;89.08;101665.25;5024384;28;20184;-51
2023/05/01 04:45:46;;;;;;;7.05;3.97;;;;;;;5.68;88.23;101661.63;5043021;28;20235;-47
2023/05/01 04:48:12;;;;;;;5.88;3.92;;;;;;;5.74;87.39;101643.00;5037340;28;20216;-46
2023/05/01 04:50:37;;;;;;;9.80;4.35;;;;;;;5.90;86.87;101637.59;5029557;28;20217;-46
2023/05/01 04:53:03;;;;;;;6.20;3.67;;;;;;;6.01;86.17;101635.78;5030833;28;20188;-49
2023/05/01 04:55:32;;;;;;;6.80;3.85;;;;;;;6.15;85.08;101639.25;5034372;28;20621;-48
2023/05/01 04:58:04;;;;;;;7.93;3.67;;;;;;;6.26;84.45;101627.66;5036903;28;20643;-47
2023/05/01 05:00:32;;;;;;;10.40;4.05;;;;;;;6.36;83.74;101635.56;5030072;28;20331;-45
2023/05/01 05:02:58;;;;;;;7.22;3.50;;;;;;;6.42;82.90;101628.41;5020428;28;20263;-47
2023/05/01 05:05:25;;;;;;;9.60;3.60;;;;;;;6.48;82.73;101623.91;5017690;28;20266;-47
2023/05/01 05:07:51;;;;;;;5.22;3.63;;;;;;;6.50;82.01;101627.44;5035624;28;20186;-47
2023/05/01 05:10:42;;;;;;;8.25;3.83;;;;;;;6.62;81.46;101623.78;5031233;28;20219;-49
2023/05/01 05:13:18;;;;;;;6.32;3.55;;;;;;;6.72;81.44;101621.94;5031734;28;20193;-48
2023/05/01 05:15:47;;;;;;;5.03;3.20;;;;;;;6.68;80.92;101625.50;5038422;28;20181;-48
2023/05/01 05:18:14;;;;;;;5.43;3.28;;;;;;;6.74;80.57;101626.34;5034855;28;20250;-48
2023/05/01 05:20:39;;;;;;;6.65;3.70;;;;;;;6.77;80.48;101625.41;5027151;28;20201;-47
2023/05/01 05:23:05;;;;;;;9.75;3.83;;;;;;;6.90;80.05;101621.72;5025153;28;20180;-47
2023/05/01 05:25:31;;;;;;;8.40;3.63;;;;;;;6.99;79.59;101626.94;5038260;28;20191;-47
2023/05/01 05:27:58;;;;;;;6.90;3.53;;;;;;;7.03;79.30;101616.28;5035309;28;20172;-48
2023/05/01 05:30:24;;;;;;;7.07;3.55;;;;;;;7.16;78.79;101615.25;5030346;28;20216;-48
2023/05/01 05:32:49;;;;;;;8.02;3.65;;;;;;;7.22;78.09;101607.19;5032665;28;20514;-43
2023/05/01 05:35:15;;;;;;;4.78;3.22;;;;;;;7.67;78.17;101603.94;5030726;28;20564;-44
2023/05/01 05:37:41;;;;;;;9.88;3.63;;;;;;;7.72;77.38;101599.41;5025545;28;20175;-43
2023/05/01 05:40:08;;;;;;;8.48;3.38;;;;;;;8.09;76.70;101597.09;5029422;28;20173;-43
2023/05/01 05:42:43;;;;;;;4.38;3.10;;;;;;;8.26;75.61;101580.78;5027981;28;20180;-44
2023/05/01 05:45:09;;;;;;;7.90;3.30;;;;;;;8.24;74.65;101579.94;5038171;28;20222;-43
2023/05/01 05:47:34;;;;;;;8.55;2.95;;;;;;;8.41;73.89;101572.56;5030584;28;20190;-44
2023/05/01 05:50:00;;;;;;;4.97;2.90;;;;;;;8.43;73.60;101565.41;5026118;28;20203;-43
2023/05/01 05:52:26;;;;;;;5.03;2.97;;;;;;;8.61;73.09;101563.31;5029688;28;20281;-42
2023/05/01 05:54:51;;;;;;;4.15;2.92;;;;;;;8.88;72.43;101556.59;5014887;28;20188;-44
2023/05/01 05:57:17;;;;;;;4.10;2.72;;;;;;;8.79;71.71;101551.41;5027848;28;20241;-44
2023/05/01 05:59:48;;;;;;;5.90;2.75;;;;;;;9.11;70.80;101536.53;5031181;28;20631;-43
2023/05/01 06:02:14;;;;;;;7.03;2.75;;;;;;;9.23;70.34;101546.97;5024329;28;20593;-45
2023/05/01 06:04:40;;;;;;;6.78;3.08;;;;;;;9.20;69.67;101536.31;5040022;28;20179;-43
2023/05/01 06:07:06;;;;;;;7.72;2.42;;;;;;;9.07;69.58;101533.94;5011353;28;20266;-41
2023/05/01 06:09:32;;;;;;;4.60;2.72;;;;;;;9.05;69.24;101534.84;5030931;28;20220;-43
2023/05/01 06:11:57;;;;;;;4.45;2.70;;;;;;;9.26;69.29;101528.19;5031033;28;20380;-43
2023/05/01 06:14:23;;;;;;;4.57;2.65;;;;;;;9.44;68.70;101529.56;5028763;28;20713;-42
2023/05/01 06:16:48;;;;;;;5.65;2.65;;;;;;;9.34;68.78;101523.56;5027798;28;20184;-43
2023/05/01 06:19:14;;;;;;;6.03;2.60;;;;;;;9.50;68.73;101518.72;5030783;28;20553;-42
2023/05/01 06:21:41;;;;;;;4.68;2.80;;;;;;;9.46;68.74;101517.91;5032003;28;20309;-45
2023/05/01 06:24:08;;;;;;;3.78;2.40;;;;;;;9.64;68.32;101513.97;5028448;28;20681;-41
2023/05/01 06:26:45;;;;;;;4.65;2.65;;;;;;;9.78;67.88;101518.09;5016661;28;20191;-42
2023/05/01 06:29:11;;;;;;;6.13;3.08;;;;;;;9.83;67.63;101508.16;5025882;28;20585;-43
2023/05/01 06:31:37;;;;;;;5.68;2.33;;;;;;;10.03;67.65;101521.03;5034561;28;20326;-42
2023/05/01 06:34:03;;;;;;;6.85;2.70;;;;;;;10.02;67.37;101511.25;5031155;28;20624;-41
2023/05/01 06:36:42;;;;;;;4.97;2.72;;;;;;;10.08;67.16;101517.34;5028827;28;20171;-42
2023/05/01 06:39:08;;;;;;;3.25;2.35;;;;;;;10.15;66.88;101510.03;5037156;28;20241;-42
2023/05/01 06:41:34;;;;;;;5.63;2.60;;;;;;;10.36;66.42;101502.38;5027546;28;20274;-43
2023/05/01 06:44:00;;;;;;;5.38;3.00;;;;;;;10.47;65.82;101497.63;5028566;28;20599;-44
2023/05/01 06:46:26;;;;;;;4.55;2.83;;;;;;;10.68;65.25;101480.06;5026470;28;20279;-43
2023/05/01 06:48:51;;;;;;;5.05;2.65;;;;;;;10.63;65.16;101477.53;5032773;28;20315;-44
2023/05/01 06:51:17;;;;;;;7.47;2.92;;;;;;;10.65;64.75;101475.69;5035310;28;20216;-43
2023/05/01 06:53:44;;;;;;;4.75;2.50;;;;;;;10.68;64.08;101458.63;5035018;28;20647;-42
2023/05/01 06:56:09;;;;;;;5.90;2.83;;;;;;;11.01;63.66;101456.75;5030420;28;20277;-43
2023/05/01 06:58:35;;;;;;;5.35;2.67;;;;;;;11.17;62.86;101448.25;5034248;28;20194;-42
2023/05/01 07:01:00;;;;;;;6.03;2.65;;;;;;;11.63;62.16;101434.28;5036157;28;20188;-43
2023/05/01 07:03:26;;;;;;;6.60;2.63;;;;;;;12.07;61.30;101439.97;5030868;28;20687;-42
2023/05/01 07:05:53;;;;;;;6.75;2.65;;;;;;;12.15;60.26;101423.56;5029245;28;20254;-44
2023/05/01 07:08:18;;;;;;;4.68;2.50;;;;;;;12.34;60.09;101411.25;5034431;28;20206;-42
2023/05/01 07:10:44;;;;;;;6.03;2.25;;;;;;;12.33;59.69;101406.81;5033796;28;20687;-43
2023/05/01 07:13:09;;;;;;;4.55;2.35;;;;;;;12.67;58.82;101400.16;5036455;28;20199;-43
2023/05/01 07:15:36;;;;;;;3.90;2.33;;;;;;;12.51;57.79;101383.75;5039979;28;20202;-43
2023/05/01 07:18:04;;;;;;;6.15;2.42;;;;;;;12.41;57.38;101385.00;5032295;28;20184;-43
2023/05/01 07:20:30;;;;;;;5.93;2.50;;;;;;;12.46;57.48;101371.41;5036637;28;20199;-43
2023/05/01 07:22:56;;;;;;;3.03;1.85;;;;;;;12.47;57.15;101378.56;5024813;28;20255;-43
2023/05/01 07:25:22;;;;;;;3.80;2.33;;;;;;;12.92;57.07;101367.84;5035558;28;20651;-43
2023/05/01 07:27:47;;;;;;;3.17;2.13;;;;;;;12.92;56.11;101358.88;5034583;28;20496;-43
2023/05/01 07:30:12;;;;;;;6.57;2.78;;;;;;;12.50;55.97;101355.09;5036467;28;20195;-43
2023/05/01 07:32:38;;;;;;;4.82;2.50;;;;;;;12.52;55.89;101355.94;5030085;28;20278;-41
2023/05/01 07:35:04;;;;;;;5.85;2.22;;;;;;;12.46;55.91;101349.91;5042407;28;20187;-42
2023/05/01 07:37:30;;;;;;;8.13;2.95;;;;;;;12.74;56.00;101361.34;5032502;28;20171;-44
2023/05/01 07:39:57;;;;;;;4.78;2.50;;;;;;;13.18;55.79;101352.44;5040358;28;20181;-43
2023/05/01 07:42:22;;;;;;;5.65;2.90;;;;;;;13.00;55.89;101346.00;5026788;28;20196;-43
2023/05/01 07:44:50;;;;;;;4.28;2.65;;;;;;;13.00;55.01;101324.50;5033901;28;20234;-43
2023/05/01 07:47:15;;;;;;;6.45;2.60;;;;;;;13.19;54.48;101338.94;5041660;28;20218;-41
2023/05/01 07:49:41;;;;;;;4.32;2.33;;;;;;;13.58;54.60;101332.88;5032860;28;20709;-40
2023/05/01 07:52:07;;;;;;;7.78;2.35;;;;;;;13.74;53.78;101316.06;5035327;28;20200;-42
2023/05/01 07:54:33;;;;;;;4.15;2.50;;;;;;;13.67;54.15;101331.59;5035897;28;20207;-41
2023/05/01 07:56:58;;;;;;;6.65;2.60;;;;;;;13.73;53.75;101320.56;5029206;28;20321;-41
2023/05/01 07:59:24;;;;;;;3.85;2.58;;;;;;;13.40;53.84;101304.03;5032987;28;20172;-41
2023/05/01 08:01:50;;;;;;;4.63;2.50;;;;;;;13.38;53.48;101312.19;5023193;28;20204;-42
2023/05/01 08:04:16;;;;;;;5.78;2.72;;;;;;;14.01;53.56;101296.00;5036383;28;20179;-42
2023/05/01 08:06:41;;;;;;;7.15;2.70;;;;;;;14.30;52.55;101288.38;5030554;28;20219;-42
2023/05/01 08:09:07;;;;;;;5.70;2.42;;;;;;;14.88;52.12;101294.66;5029483;28;20207;-41
2023/05/01 08:11:33;;;;;;;6.90;3.13;;;;;;;14.55;50.70;101271.94;5025151;28;20267;-42
2023/05/01 08:13:58;;;;;;;4.50;2.13;;;;;;;14.67;51.62;101278.59;5028946;28;20200;-43
2023/05/01 08:16:24;;;;;;;6.10;2.05;;;;;;;14.48;50.79;101275.84;5033349;28;20258;-42
2023/05/01 08:18:49;;;;;;;4.55;2.50;;;;;;;14.95;50.81;101280.78;5025065;28;20219;-42
2023/05/01 08:21:15;;;;;;;4.85;2.30;;;;;;;14.91;49.95;101271.13;5028383;28;20187;-46
2023/05/01 08:23:41;;;;;;;6.30;2.60;;;;;;;14.29;49.71;101250.72;5033707;28;20261;-46
2023/05/01 08:26:06;;;;;;;8.10;2.47;;;;;;;14.79;49.64;101248.31;5034826;28;20269;-46
2023/05/01 08:28:34;;;;;;;10.48;2.92;;;;;;;14.59;49.76;101245.72;5026039;28;20250;-50
2023/05/01 08:30:59;;;;;;;4.78;2.38;;;;;;;14.78;50.39;101260.06;5034148;28;20764;-49
2023/05/01 08:33:25;;;;;;;5.30;2.20;;;;;;;15.01;49.77;101248.13;5039095;28;20188;-49
2023/05/01 08:35:51;;;;;;;5.18;2.17;;;;;;;15.16;49.50;101249.16;5038631;28;20181;-51
2023/05/01 08:38:17;;;;;;;6.93;2.65;;;;;;;14.94;49.09;101243.97;5029994;28;20175;-50
2023/05/01 08:40:49;;;;;;;3.72;2.20;;;;;;;15.54;49.37;101253.53;5032764;28;20538;-52
2023/05/01 08:43:16;;;;;;;6.00;2.30;;;;;;;15.85;48.72;101248.31;5030038;28;20218;-50
2023/05/01 08:45:42;;;;;;;4.07;2.35;;;;;;;15.45;47.75;101223.34;5034624;28;20261;-50
2023/05/01 08:48:11;;;;;;;5.03;2.55;;;;;;;16.12;48.67;101244.19;5029638;28;20238;-48
2023/05/01 08:50:39;;;;;;;3.42;1.75;;;;;;;16.45;47.65;101233.34;5031829;28;20299;-50
2023/05/01 08:53:07;;;;;;;4.80;2.05;;;;;;;15.29;46.32;101187.34;5040673;28;20884;-51
2023/05/01 08:55:33;;;;;;;4.05;2.20;;;;;;;15.23;46.66;101195.75;5033042;28;20672;-48
2023/05/01 08:58:00;;;;;;;8.63;2.70;;;;;;;15.21;47.13;101187.72;5027073;28;20257;-50
2023/05/01 09:00:27;;;;;;;6.30;2.38;;;;;;;15.68;47.56;101207.78;5032479;28;20185;-48
2023/05/01 09:02:54;;;;;;;5.35;2.33;;;;;;;16.18;46.48;101203.28;5037487;28;20551;-49
2023/05/01 09:05:20;;;;;;;6.20;2.50;;;;;;;15.71;45.78;101182.44;5033845;28;20222;-50
2023/05/01 09:07:46;;;;;;;6.85;2.50;;;;;;;15.27;46.60;101185.66;5035190;28;20271;-51
2023/05/01 09:10:15;;;;;;;4.32;2.42;;;;;;;15.11;45.96;101169.38;5028575;28;20635;-51
2023/05/01 09:12:44;;;;;;;4.65;2.05;;;;;;;15.27;46.17;101178.44;5041058;28;20206;-50
2023/05/01 09:15:11;;;;;;;4.20;2.20;;;;;;;15.36;45.78;101171.69;5022628;28;20259;-48
2023/05/01 09:17:36;;;;;;;6.82;2.10;;;;;;;15.01;46.39;101171.69;5027142;28;20620;-48
2023/05/01 09:20:06;;;;;;;5.10;2.35;;;;;;;15.50;47.00;101196.09;5033343;28;20267;-51
2023/05/01 09:22:33;;;;;;;6.47;2.85;;;;;;;15.30;47.04;101183.66;5040137;28;20179;-49
2023/05/01 09:24:59;;;;;;;6.50;2.47;;;;;;;15.88;46.27;101179.72;5032697;28;20183;-48
2023/05/01 09:27:32;;;;;;;3.63;2.05;;;;;;;15.62;45.68;101160.34;5027410;28;20565;-49
2023/05/01 09:29:58;;;;;;;4.22;2.33;;;;;;;15.95;44.88;101164.91;5025876;28;20199;-50
2023/05/01 09:32:28;;;;;;;3.47;2.33;;;;;;;16.40;44.21;101155.16;5035261;28;20625;-50
2023/05/01 09:34:55;;;;;;;3.85;2.00;;;;;;;16.71;44.51;101158.78;5024348;28;20180;-48
2023/05/01 09:37:28;;;;;;;4.28;2.10;;;;;;;16.56;42.91;101124.53;5038290;28;20175;-52
2023/05/01 09:40:26;;;;;;;5.18;2.35;;;;;;;16.84;43.32;101130.06;5039011;28;20192;-50
2023/05/01 09:42:54;;;;;;;5.47;2.38;;;;;;;16.19;43.65;101132.91;4992377;28;20184;-50
2023/05/01 09:45:22;;;;;;;6.50;2.30;;;;;;;16.16;43.80;101127.69;5024064;28;20257;-49
2023/05/01 09:47:48;;;;;;;3.72;2.00;;;;;;;16.73;45.11;101161.41;5029072;28;20169;-47
2023/05/01 09:50:31;;;;;;;3.72;2.15;;;;;;;15.93;43.74;101136.22;5039292;28;20244;-47
2023/05/01 09:52:59;;;;;;;7.35;2.25;;;;;;;15.62;43.49;101117.13;5027189;28;20199;-49
2023/05/01 09:55:25;;;;;;;3.88;2.05;;;;;;;16.15;43.05;101116.97;5029007;28;20555;-49
2023/05/01 09:57:51;;;;;;;3.95;2.00;;;;;;;16.48;42.55;101108.72;5030119;28;20266;-48
2023/05/01 10:00:19;;;;;;;4.53;2.30;;;;;;;16.42;42.35;101115.38;5033870;28;20271;-49
2023/05/01 10:02:47;;;;;;;5.47;2.30;;;;;;;16.30;42.70;101099.00;5024385;28;20173;-49
2023/05/01 10:05:13;;;;;;;4.72;2.22;;;;;;;16.30;42.92;101110.69;5030255;28;20321;-48
2023/05/01 10:07:40;;;;;;;5.85;2.20;;;;;;;16.46;42.99;101113.34;5034223;28;20214;-49
2023/05/01 10:10:19;;;;;;;5.10;2.50;;;;;;;16.52;42.93;101101.31;5032069;28;20203;-49
2023/05/01 10:12:45;;;;;;;3.08;2.28;;;;;;;17.16;42.37;101102.88;5029222;28;20870;-49
2023/05/01 10:15:10;;;;;;;7.15;2.22;;;;;;;17.39;41.84;101093.34;5025812;28;20188;-47
2023/05/01 10:17:38;;;;;;;7.72;2.47;;;;;;;17.14;41.08;101075.03;5032135;28;20180;-49
2023/05/01 10:20:06;;;;;;;4.40;2.28;;;;;;;16.87;42.11;101085.72;5032597;28;20218;-49
2023/05/01 10:22:35;;;;;;;4.85;2.10;;;;;;;17.35;42.16;101086.38;5025329;28;20192;-48
2023/05/01 10:25:03;;;;;;;4.32;2.10;;;;;;;17.20;41.50;101076.50;5030143;28;20206;-46
2023/05/01 10:27:29;;;;;;;6.55;2.10;;;;;;;17.61;42.46;101084.72;5032787;28;20819;-51
2023/05/01 10:29:56;;;;;;;6.05;2.20;;;;;;;17.33;41.03;101061.22;5024569;28;20202;-49
2023/05/01 10:32:21;;;;;;;3.55;2.28;;;;;;;17.66;40.91;101058.19;5029839;28;20261;-47
2023/05/01 10:34:52;;;;;;;3.97;2.08;;;;;;;17.41;42.55;101077.00;5031723;28;20179;-48
2023/05/01 10:37:23;;;;;;;9.15;2.88;;;;;;;17.42;41.61;101062.47;5034663;28;20176;-48
2023/05/01 10:39:49;;;;;;;6.18;2.40;;;;;;;17.38;42.09;101058.22;5034336;28;20207;-47
2023/05/01 10:42:15;;;;;;;4.50;1.85;;;;;;;17.15;42.02;101065.94;5021035;28;20689;-49
2023/05/01 10:44:42;;;;;;;4.20;2.00;;;;;;;16.76;41.33;101025.94;5030346;28;20190;-49
2023/05/01 10:47:33;;;;;;;6.45;2.10;;;;;;;17.90;41.75;101055.75;5031648;28;20191;-49
2023/05/01 10:50:06;;;;;;;6.45;2.35;;;;;;;17.09;39.84;101013.03;5025139;28;20676;-48
2023/05/01 10:53:13;;;;;;;3.45;1.80;;;;;;;17.99;40.03;101027.19;5030924;28;20192;-47
2023/05/01 10:55:43;;;;;;;5.35;1.80;;;;;;;18.56;40.08;101034.22;5041298;28;20179;-47
2023/05/01 10:58:13;;;;;;;2.60;1.95;;;;;;;17.88;39.04;100998.06;5041060;28;20250;-49
2023/05/01 11:00:39;;;;;;;6.90;2.20;;;;;;;18.26;39.28;100996.50;5022559;28;20261;-47
2023/05/01 11:03:20;;;;;;;4.05;1.98;;;;;;;18.27;39.06;100998.22;5026304;28;20276;-47
2023/05/01 11:06:04;;;;;;;5.47;1.55;;;;;;;17.82;37.86;100968.69;5034897;28;20188;-47
2023/05/01 11:08:31;;;;;;;3.58;1.75;;;;;;;18.60;38.08;100980.59;5025702;28;20168;-48
2023/05/01 11:10:56;;;;;;;6.50;1.95;;;;;;;17.58;38.22;100952.16;5031104;28;20720;-48
2023/05/01 11:13:56;;;;;;;4.10;1.80;;;;;;;18.39;38.08;100978.41;5039831;28;20188;-48
2023/05/01 11:16:42;;;;;;;2.97;1.83;;;;;;;18.37;37.10;100952.38;5023993;28;20663;-48
2023/05/01 11:19:37;;;;;;;5.35;2.22;;;;;;;17.60;37.38;100947.53;5026946;28;20271;-52
2023/05/01 11:22:11;;;;;;;3.85;1.83;;;;;;;18.40;37.46;100960.28;5031110;28;20206;-46
2023/05/01 11:24:36;;;;;;;3.33;1.80;;;;;;;18.66;36.96;100953.91;5034971;28;20275;-50
2023/05/01 11:27:03;;;;;;;4.43;1.70;;;;;;;18.65;37.50;100962.13;5028967;28;20577;-49
2023/05/01 11:29:32;;;;;;;5.20;1.90;;;;;;;18.72;37.96;100968.91;5021901;28;20196;-49
2023/05/01 11:31:59;;;;;;;4.65;1.75;;;;;;;18.42;36.83;100947.47;5031091;28;20255;-47
2023/05/01 11:34:25;;;;;;;4.35;1.80;;;;;;;18.11;36.69;100931.47;5032823;28;20176;-49
2023/05/01 11:36:52;;;;;;;3.95;1.83;;;;;;;18.11;37.84;100952.31;5027768;28;20187;-47